Terminal Aerodrome Forecast
Issued by NWS Birmingham, AL

Home | Current Version | Previous Version | Text Only | Print | Product List | Glossary On
Versions: 1 2 3 4 5 6 7 8 9 10 11 12 13 14
000
FTUS44 KBMX 271100
TAFBHM
TAF
KBHM 271136Z 2712/2812 27005KT P6SM SCT035
     FM271600 34010G18KT P6SM BKN035
     FM272300 35004KT P6SM FEW040=

USA.gov is the U.S. government's official web portal to all federal, state and local government web resources and services.